sensor_id;sensor_type;location;lat;lon;timestamp;P1;durP1;ratioP1;P2;durP2;ratioP2
6785;SDS011;3430;51.192;6.048;2022-12-10T00:01:28;14.03;;;9.40;;
6785;SDS011;3430;51.192;6.048;2022-12-10T00:03:54;13.40;;;9.50;;
6785;SDS011;3430;51.192;6.048;2022-12-10T00:06:21;15.03;;;9.90;;
6785;SDS011;3430;51.192;6.048;2022-12-10T00:08:46;16.63;;;10.07;;
6785;SDS011;3430;51.192;6.048;2022-12-10T00:11:13;13.30;;;9.57;;
6785;SDS011;3430;51.192;6.048;2022-12-10T00:13:38;16.77;;;10.80;;
6785;SDS011;3430;51.192;6.048;2022-12-10T00:16:05;15.37;;;9.50;;
6785;SDS011;3430;51.192;6.048;2022-12-10T00:18:31;15.23;;;10.00;;
6785;SDS011;3430;51.192;6.048;2022-12-10T00:20:56;17.73;;;10.27;;
6785;SDS011;3430;51.192;6.048;2022-12-10T00:23:22;14.50;;;10.20;;
6785;SDS011;3430;51.192;6.048;2022-12-10T00:25:47;13.67;;;10.47;;
6785;SDS011;3430;51.192;6.048;2022-12-10T00:28:12;15.73;;;9.97;;
6785;SDS011;3430;51.192;6.048;2022-12-10T00:30:38;13.90;;;9.63;;
6785;SDS011;3430;51.192;6.048;2022-12-10T00:33:03;13.27;;;10.63;;
6785;SDS011;3430;51.192;6.048;2022-12-10T00:35:28;19.03;;;11.40;;
6785;SDS011;3430;51.192;6.048;2022-12-10T00:37:54;14.93;;;10.57;;
6785;SDS011;3430;51.192;6.048;2022-12-10T00:40:20;14.17;;;9.70;;
6785;SDS011;3430;51.192;6.048;2022-12-10T00:42:45;15.87;;;9.63;;
6785;SDS011;3430;51.192;6.048;2022-12-10T00:45:10;17.13;;;11.33;;
6785;SDS011;3430;51.192;6.048;2022-12-10T00:47:36;15.20;;;10.30;;
6785;SDS011;3430;51.192;6.048;2022-12-10T00:50:01;14.03;;;9.13;;
6785;SDS011;3430;51.192;6.048;2022-12-10T00:52:26;17.60;;;9.73;;
6785;SDS011;3430;51.192;6.048;2022-12-10T00:54:52;17.90;;;12.00;;
6785;SDS011;3430;51.192;6.048;2022-12-10T00:57:17;14.33;;;9.93;;
6785;SDS011;3430;51.192;6.048;2022-12-10T00:59:42;15.53;;;10.90;;
6785;SDS011;3430;51.192;6.048;2022-12-10T01:02:07;13.97;;;10.47;;
6785;SDS011;3430;51.192;6.048;2022-12-10T01:04:33;14.47;;;10.00;;
6785;SDS011;3430;51.192;6.048;2022-12-10T01:06:58;16.17;;;9.90;;
6785;SDS011;3430;51.192;6.048;2022-12-10T01:09:25;16.80;;;10.70;;
6785;SDS011;3430;51.192;6.048;2022-12-10T01:11:51;15.63;;;10.13;;
6785;SDS011;3430;51.192;6.048;2022-12-10T01:14:19;17.10;;;11.17;;
6785;SDS011;3430;51.192;6.048;2022-12-10T01:16:45;15.00;;;10.20;;
6785;SDS011;3430;51.192;6.048;2022-12-10T01:19:11;13.93;;;9.90;;
6785;SDS011;3430;51.192;6.048;2022-12-10T01:21:36;17.30;;;12.03;;
6785;SDS011;3430;51.192;6.048;2022-12-10T01:24:02;15.27;;;10.03;;
6785;SDS011;3430;51.192;6.048;2022-12-10T01:26:29;20.60;;;11.57;;
6785;SDS011;3430;51.192;6.048;2022-12-10T01:28:54;17.60;;;10.13;;
6785;SDS011;3430;51.192;6.048;2022-12-10T01:31:24;19.43;;;11.67;;
6785;SDS011;3430;51.192;6.048;2022-12-10T01:33:50;15.53;;;11.10;;
6785;SDS011;3430;51.192;6.048;2022-12-10T01:36:17;15.17;;;10.10;;
6785;SDS011;3430;51.192;6.048;2022-12-10T01:38:43;15.70;;;11.17;;
6785;SDS011;3430;51.192;6.048;2022-12-10T01:41:13;18.77;;;12.00;;
6785;SDS011;3430;51.192;6.048;2022-12-10T01:43:51;16.93;;;11.30;;
6785;SDS011;3430;51.192;6.048;2022-12-10T01:46:16;16.57;;;11.10;;
6785;SDS011;3430;51.192;6.048;2022-12-10T01:48:42;15.87;;;10.77;;
6785;SDS011;3430;51.192;6.048;2022-12-10T01:51:07;19.97;;;11.57;;
6785;SDS011;3430;51.192;6.048;2022-12-10T01:53:33;17.47;;;10.93;;
6785;SDS011;3430;51.192;6.048;2022-12-10T01:55:58;14.90;;;10.60;;
6785;SDS011;3430;51.192;6.048;2022-12-10T01:58:23;17.37;;;11.77;;
6785;SDS011;3430;51.192;6.048;2022-12-10T02:01:02;16.80;;;10.70;;
6785;SDS011;3430;51.192;6.048;2022-12-10T02:03:41;17.73;;;11.00;;
6785;SDS011;3430;51.192;6.048;2022-12-10T02:08:58;18.77;;;11.77;;
6785;SDS011;3430;51.192;6.048;2022-12-10T02:11:33;19.97;;;11.20;;
6785;SDS011;3430;51.192;6.048;2022-12-10T02:14:03;14.67;;;11.87;;
6785;SDS011;3430;51.192;6.048;2022-12-10T02:16:34;17.77;;;10.30;;
6785;SDS011;3430;51.192;6.048;2022-12-10T02:19:08;18.97;;;11.70;;
6785;SDS011;3430;51.192;6.048;2022-12-10T02:21:37;24.00;;;12.83;;
6785;SDS011;3430;51.192;6.048;2022-12-10T02:24:04;18.53;;;11.20;;
6785;SDS011;3430;51.192;6.048;2022-12-10T02:29:12;20.13;;;12.00;;
6785;SDS011;3430;51.192;6.048;2022-12-10T02:31:39;18.63;;;11.70;;
6785;SDS011;3430;51.192;6.048;2022-12-10T02:34:06;17.10;;;11.00;;
6785;SDS011;3430;51.192;6.048;2022-12-10T02:36:34;20.03;;;11.80;;
6785;SDS011;3430;51.192;6.048;2022-12-10T02:39:01;18.57;;;11.87;;
6785;SDS011;3430;51.192;6.048;2022-12-10T02:41:32;18.83;;;12.43;;
6785;SDS011;3430;51.192;6.048;2022-12-10T02:43:59;18.33;;;11.73;;
6785;SDS011;3430;51.192;6.048;2022-12-10T02:46:26;17.10;;;10.93;;
6785;SDS011;3430;51.192;6.048;2022-12-10T02:48:53;18.57;;;11.20;;
6785;SDS011;3430;51.192;6.048;2022-12-10T02:51:19;19.90;;;11.30;;
6785;SDS011;3430;51.192;6.048;2022-12-10T02:53:44;15.90;;;11.20;;
6785;SDS011;3430;51.192;6.048;2022-12-10T03:03:52;15.63;;;12.00;;
6785;SDS011;3430;51.192;6.048;2022-12-10T03:06:30;17.37;;;11.40;;
6785;SDS011;3430;51.192;6.048;2022-12-10T03:09:04;17.03;;;11.83;;
6785;SDS011;3430;51.192;6.048;2022-12-10T03:11:31;18.03;;;11.63;;
6785;SDS011;3430;51.192;6.048;2022-12-10T03:14:00;18.43;;;11.53;;
6785;SDS011;3430;51.192;6.048;2022-12-10T03:16:46;17.50;;;11.47;;
6785;SDS011;3430;51.192;6.048;2022-12-10T03:19:19;21.30;;;11.73;;
6785;SDS011;3430;51.192;6.048;2022-12-10T03:21:46;21.70;;;13.43;;
6785;SDS011;3430;51.192;6.048;2022-12-10T03:24:12;18.13;;;12.13;;
6785;SDS011;3430;51.192;6.048;2022-12-10T03:26:38;21.20;;;12.37;;
6785;SDS011;3430;51.192;6.048;2022-12-10T03:29:06;22.77;;;13.20;;
6785;SDS011;3430;51.192;6.048;2022-12-10T03:31:33;20.13;;;11.80;;
6785;SDS011;3430;51.192;6.048;2022-12-10T03:33:59;28.87;;;12.77;;
6785;SDS011;3430;51.192;6.048;2022-12-10T03:36:31;19.47;;;12.63;;
6785;SDS011;3430;51.192;6.048;2022-12-10T03:38:56;18.17;;;11.83;;
6785;SDS011;3430;51.192;6.048;2022-12-10T03:41:22;20.57;;;12.43;;
6785;SDS011;3430;51.192;6.048;2022-12-10T03:43:52;21.60;;;13.33;;
6785;SDS011;3430;51.192;6.048;2022-12-10T03:46:17;19.73;;;13.43;;
6785;SDS011;3430;51.192;6.048;2022-12-10T03:48:43;23.00;;;13.47;;
6785;SDS011;3430;51.192;6.048;2022-12-10T03:51:08;20.10;;;12.93;;
6785;SDS011;3430;51.192;6.048;2022-12-10T03:53:34;18.20;;;12.13;;
6785;SDS011;3430;51.192;6.048;2022-12-10T03:55:59;23.37;;;13.77;;
6785;SDS011;3430;51.192;6.048;2022-12-10T03:58:25;19.20;;;13.37;;
6785;SDS011;3430;51.192;6.048;2022-12-10T04:00:50;21.10;;;12.80;;
6785;SDS011;3430;51.192;6.048;2022-12-10T04:03:15;21.00;;;13.23;;
6785;SDS011;3430;51.192;6.048;2022-12-10T04:05:41;22.20;;;13.23;;
6785;SDS011;3430;51.192;6.048;2022-12-10T04:08:06;23.30;;;14.40;;
6785;SDS011;3430;51.192;6.048;2022-12-10T04:10:34;24.50;;;14.43;;
6785;SDS011;3430;51.192;6.048;2022-12-10T04:12:59;24.13;;;14.00;;
6785;SDS011;3430;51.192;6.048;2022-12-10T04:15:43;27.00;;;12.80;;
6785;SDS011;3430;51.192;6.048;2022-12-10T04:18:27;21.53;;;12.10;;
6785;SDS011;3430;51.192;6.048;2022-12-10T04:20:53;24.63;;;13.53;;
6785;SDS011;3430;51.192;6.048;2022-12-10T04:23:36;25.07;;;13.77;;
6785;SDS011;3430;51.192;6.048;2022-12-10T04:26:20;23.90;;;13.33;;
6785;SDS011;3430;51.192;6.048;2022-12-10T04:29:04;24.67;;;14.60;;
6785;SDS011;3430;51.192;6.048;2022-12-10T04:31:30;27.50;;;16.13;;
6785;SDS011;3430;51.192;6.048;2022-12-10T04:33:55;23.63;;;13.90;;
6785;SDS011;3430;51.192;6.048;2022-12-10T04:36:21;21.80;;;13.90;;
6785;SDS011;3430;51.192;6.048;2022-12-10T04:38:46;26.77;;;14.27;;
6785;SDS011;3430;51.192;6.048;2022-12-10T04:41:11;24.53;;;14.37;;
6785;SDS011;3430;51.192;6.048;2022-12-10T04:43:40;23.93;;;14.40;;
6785;SDS011;3430;51.192;6.048;2022-12-10T04:46:06;25.97;;;16.00;;
6785;SDS011;3430;51.192;6.048;2022-12-10T04:48:31;29.17;;;16.17;;
6785;SDS011;3430;51.192;6.048;2022-12-10T04:50:56;25.90;;;16.70;;
6785;SDS011;3430;51.192;6.048;2022-12-10T04:53:21;28.27;;;16.33;;
6785;SDS011;3430;51.192;6.048;2022-12-10T04:55:47;31.83;;;15.83;;
6785;SDS011;3430;51.192;6.048;2022-12-10T04:58:13;28.47;;;15.77;;
6785;SDS011;3430;51.192;6.048;2022-12-10T05:00:38;30.37;;;16.87;;
6785;SDS011;3430;51.192;6.048;2022-12-10T05:03:03;25.33;;;15.50;;
6785;SDS011;3430;51.192;6.048;2022-12-10T05:05:28;26.53;;;15.87;;
6785;SDS011;3430;51.192;6.048;2022-12-10T05:07:54;32.10;;;17.33;;
6785;SDS011;3430;51.192;6.048;2022-12-10T05:10:19;31.03;;;17.20;;
6785;SDS011;3430;51.192;6.048;2022-12-10T05:12:45;34.73;;;17.20;;
6785;SDS011;3430;51.192;6.048;2022-12-10T05:15:10;29.70;;;17.70;;
6785;SDS011;3430;51.192;6.048;2022-12-10T05:17:35;25.87;;;15.00;;
6785;SDS011;3430;51.192;6.048;2022-12-10T05:20:01;26.03;;;16.07;;
6785;SDS011;3430;51.192;6.048;2022-12-10T05:22:26;28.73;;;15.33;;
6785;SDS011;3430;51.192;6.048;2022-12-10T05:25:10;25.47;;;15.70;;
6785;SDS011;3430;51.192;6.048;2022-12-10T05:27:35;27.30;;;16.17;;
6785;SDS011;3430;51.192;6.048;2022-12-10T05:30:01;24.20;;;14.77;;
6785;SDS011;3430;51.192;6.048;2022-12-10T05:32:26;30.03;;;16.80;;
6785;SDS011;3430;51.192;6.048;2022-12-10T05:34:51;27.30;;;16.50;;
6785;SDS011;3430;51.192;6.048;2022-12-10T05:37:16;26.30;;;15.43;;
6785;SDS011;3430;51.192;6.048;2022-12-10T05:39:42;25.60;;;14.30;;
6785;SDS011;3430;51.192;6.048;2022-12-10T05:42:07;28.50;;;15.87;;
6785;SDS011;3430;51.192;6.048;2022-12-10T05:44:32;27.43;;;15.90;;
6785;SDS011;3430;51.192;6.048;2022-12-10T05:46:58;28.70;;;16.37;;
6785;SDS011;3430;51.192;6.048;2022-12-10T05:49:23;23.60;;;14.90;;
6785;SDS011;3430;51.192;6.048;2022-12-10T05:51:48;21.63;;;15.17;;
6785;SDS011;3430;51.192;6.048;2022-12-10T05:54:14;23.57;;;15.20;;
6785;SDS011;3430;51.192;6.048;2022-12-10T05:56:39;23.73;;;15.30;;
6785;SDS011;3430;51.192;6.048;2022-12-10T05:59:04;22.27;;;14.63;;
6785;SDS011;3430;51.192;6.048;2022-12-10T06:01:31;25.10;;;15.53;;
6785;SDS011;3430;51.192;6.048;2022-12-10T06:04:00;24.03;;;15.93;;
6785;SDS011;3430;51.192;6.048;2022-12-10T06:06:27;25.57;;;15.33;;
6785;SDS011;3430;51.192;6.048;2022-12-10T06:08:52;24.70;;;15.57;;
6785;SDS011;3430;51.192;6.048;2022-12-10T06:11:18;25.47;;;15.23;;
6785;SDS011;3430;51.192;6.048;2022-12-10T06:13:43;22.93;;;15.53;;
6785;SDS011;3430;51.192;6.048;2022-12-10T06:16:10;24.13;;;16.40;;
6785;SDS011;3430;51.192;6.048;2022-12-10T06:18:35;29.10;;;17.13;;
6785;SDS011;3430;51.192;6.048;2022-12-10T06:21:07;25.67;;;16.50;;
6785;SDS011;3430;51.192;6.048;2022-12-10T06:23:36;23.90;;;15.37;;
6785;SDS011;3430;51.192;6.048;2022-12-10T06:26:09;24.93;;;15.50;;
6785;SDS011;3430;51.192;6.048;2022-12-10T06:28:35;23.63;;;16.50;;
6785;SDS011;3430;51.192;6.048;2022-12-10T06:31:01;23.87;;;15.20;;
6785;SDS011;3430;51.192;6.048;2022-12-10T06:33:26;24.03;;;15.53;;
6785;SDS011;3430;51.192;6.048;2022-12-10T06:35:51;28.90;;;17.60;;
6785;SDS011;3430;51.192;6.048;2022-12-10T06:38:17;23.50;;;15.37;;
6785;SDS011;3430;51.192;6.048;2022-12-10T06:40:42;24.43;;;16.37;;
6785;SDS011;3430;51.192;6.048;2022-12-10T06:43:07;26.47;;;17.03;;
6785;SDS011;3430;51.192;6.048;2022-12-10T06:45:33;24.10;;;15.23;;
6785;SDS011;3430;51.192;6.048;2022-12-10T06:47:58;24.60;;;14.93;;
6785;SDS011;3430;51.192;6.048;2022-12-10T06:50:24;24.17;;;15.83;;
6785;SDS011;3430;51.192;6.048;2022-12-10T06:52:49;27.10;;;16.50;;
6785;SDS011;3430;51.192;6.048;2022-12-10T06:55:15;23.33;;;14.97;;
6785;SDS011;3430;51.192;6.048;2022-12-10T06:57:41;23.87;;;15.77;;
6785;SDS011;3430;51.192;6.048;2022-12-10T07:00:06;28.07;;;16.43;;
6785;SDS011;3430;51.192;6.048;2022-12-10T07:02:31;25.43;;;16.40;;
6785;SDS011;3430;51.192;6.048;2022-12-10T07:04:57;29.07;;;16.80;;
6785;SDS011;3430;51.192;6.048;2022-12-10T07:07:23;27.60;;;16.03;;
6785;SDS011;3430;51.192;6.048;2022-12-10T07:09:48;24.53;;;15.37;;
6785;SDS011;3430;51.192;6.048;2022-12-10T07:12:13;23.33;;;15.67;;
6785;SDS011;3430;51.192;6.048;2022-12-10T07:14:39;32.43;;;19.60;;
6785;SDS011;3430;51.192;6.048;2022-12-10T07:17:05;29.73;;;17.03;;
6785;SDS011;3430;51.192;6.048;2022-12-10T07:19:31;31.43;;;17.13;;
6785;SDS011;3430;51.192;6.048;2022-12-10T07:21:56;24.40;;;15.70;;
6785;SDS011;3430;51.192;6.048;2022-12-10T07:24:21;29.77;;;18.17;;
6785;SDS011;3430;51.192;6.048;2022-12-10T07:26:47;29.33;;;16.40;;
6785;SDS011;3430;51.192;6.048;2022-12-10T07:29:14;31.03;;;17.70;;
6785;SDS011;3430;51.192;6.048;2022-12-10T07:31:39;25.33;;;15.67;;
6785;SDS011;3430;51.192;6.048;2022-12-10T07:34:05;28.47;;;16.43;;
6785;SDS011;3430;51.192;6.048;2022-12-10T07:36:30;28.60;;;18.23;;
6785;SDS011;3430;51.192;6.048;2022-12-10T07:38:55;30.10;;;18.70;;
6785;SDS011;3430;51.192;6.048;2022-12-10T07:41:22;27.30;;;18.10;;
6785;SDS011;3430;51.192;6.048;2022-12-10T07:43:47;26.70;;;18.87;;
6785;SDS011;3430;51.192;6.048;2022-12-10T07:46:16;26.20;;;16.97;;
6785;SDS011;3430;51.192;6.048;2022-12-10T07:48:42;26.10;;;16.63;;
6785;SDS011;3430;51.192;6.048;2022-12-10T07:51:08;29.63;;;17.10;;
6785;SDS011;3430;51.192;6.048;2022-12-10T07:53:34;25.87;;;17.50;;
6785;SDS011;3430;51.192;6.048;2022-12-10T07:55:59;28.70;;;17.13;;
6785;SDS011;3430;51.192;6.048;2022-12-10T07:58:25;30.67;;;18.07;;
6785;SDS011;3430;51.192;6.048;2022-12-10T08:00:50;26.37;;;16.00;;
6785;SDS011;3430;51.192;6.048;2022-12-10T08:03:15;28.43;;;18.47;;
6785;SDS011;3430;51.192;6.048;2022-12-10T08:05:41;28.10;;;17.57;;
6785;SDS011;3430;51.192;6.048;2022-12-10T08:08:06;25.80;;;17.53;;
6785;SDS011;3430;51.192;6.048;2022-12-10T08:10:38;28.83;;;18.37;;
6785;SDS011;3430;51.192;6.048;2022-12-10T08:13:04;28.80;;;16.93;;
6785;SDS011;3430;51.192;6.048;2022-12-10T08:15:29;28.47;;;17.67;;
6785;SDS011;3430;51.192;6.048;2022-12-10T08:17:55;31.10;;;17.23;;
6785;SDS011;3430;51.192;6.048;2022-12-10T08:20:20;27.93;;;16.87;;
6785;SDS011;3430;51.192;6.048;2022-12-10T08:22:46;27.70;;;17.97;;
6785;SDS011;3430;51.192;6.048;2022-12-10T08:25:11;25.90;;;16.33;;
6785;SDS011;3430;51.192;6.048;2022-12-10T08:27:37;34.33;;;19.03;;
6785;SDS011;3430;51.192;6.048;2022-12-10T08:30:02;30.93;;;17.70;;
6785;SDS011;3430;51.192;6.048;2022-12-10T08:32:28;24.97;;;16.30;;
6785;SDS011;3430;51.192;6.048;2022-12-10T08:34:53;30.20;;;17.00;;
6785;SDS011;3430;51.192;6.048;2022-12-10T08:37:18;32.60;;;19.20;;
6785;SDS011;3430;51.192;6.048;2022-12-10T08:39:43;28.00;;;17.37;;
6785;SDS011;3430;51.192;6.048;2022-12-10T08:42:09;29.63;;;17.33;;
6785;SDS011;3430;51.192;6.048;2022-12-10T08:44:35;28.83;;;17.80;;
6785;SDS011;3430;51.192;6.048;2022-12-10T08:47:00;30.90;;;18.03;;
6785;SDS011;3430;51.192;6.048;2022-12-10T08:49:25;27.23;;;17.47;;
6785;SDS011;3430;51.192;6.048;2022-12-10T08:51:51;31.37;;;18.57;;
6785;SDS011;3430;51.192;6.048;2022-12-10T08:54:16;32.53;;;17.10;;
6785;SDS011;3430;51.192;6.048;2022-12-10T08:56:41;29.47;;;18.00;;
6785;SDS011;3430;51.192;6.048;2022-12-10T08:59:07;27.30;;;17.27;;
6785;SDS011;3430;51.192;6.048;2022-12-10T09:01:32;31.70;;;17.40;;
6785;SDS011;3430;51.192;6.048;2022-12-10T09:03:58;32.30;;;18.00;;
6785;SDS011;3430;51.192;6.048;2022-12-10T09:06:24;31.80;;;17.63;;
6785;SDS011;3430;51.192;6.048;2022-12-10T09:08:50;28.93;;;17.27;;
6785;SDS011;3430;51.192;6.048;2022-12-10T09:13:43;34.57;;;18.73;;
6785;SDS011;3430;51.192;6.048;2022-12-10T09:16:09;31.77;;;18.33;;
6785;SDS011;3430;51.192;6.048;2022-12-10T09:18:34;30.27;;;16.77;;
6785;SDS011;3430;51.192;6.048;2022-12-10T09:21:03;30.93;;;17.23;;
6785;SDS011;3430;51.192;6.048;2022-12-10T09:23:29;30.53;;;17.87;;
6785;SDS011;3430;51.192;6.048;2022-12-10T09:25:54;31.57;;;17.33;;
6785;SDS011;3430;51.192;6.048;2022-12-10T09:28:20;30.53;;;17.57;;
6785;SDS011;3430;51.192;6.048;2022-12-10T09:30:45;31.40;;;17.83;;
6785;SDS011;3430;51.192;6.048;2022-12-10T09:33:10;31.87;;;18.57;;
6785;SDS011;3430;51.192;6.048;2022-12-10T09:35:39;28.67;;;17.53;;
6785;SDS011;3430;51.192;6.048;2022-12-10T09:38:04;29.07;;;17.60;;
6785;SDS011;3430;51.192;6.048;2022-12-10T09:40:39;32.73;;;19.03;;
6785;SDS011;3430;51.192;6.048;2022-12-10T09:43:10;31.93;;;17.37;;
6785;SDS011;3430;51.192;6.048;2022-12-10T09:46:02;29.43;;;17.43;;
6785;SDS011;3430;51.192;6.048;2022-12-10T09:53:42;32.50;;;18.73;;
6785;SDS011;3430;51.192;6.048;2022-12-10T09:56:14;32.20;;;18.03;;
6785;SDS011;3430;51.192;6.048;2022-12-10T09:58:43;31.93;;;18.90;;
6785;SDS011;3430;51.192;6.048;2022-12-10T10:01:09;35.57;;;19.70;;
6785;SDS011;3430;51.192;6.048;2022-12-10T10:03:38;31.90;;;19.27;;
6785;SDS011;3430;51.192;6.048;2022-12-10T10:06:03;33.57;;;16.73;;
6785;SDS011;3430;51.192;6.048;2022-12-10T10:11:14;32.43;;;19.40;;
6785;SDS011;3430;51.192;6.048;2022-12-10T10:13:42;32.63;;;19.03;;
6785;SDS011;3430;51.192;6.048;2022-12-10T10:21:23;28.93;;;18.43;;
6785;SDS011;3430;51.192;6.048;2022-12-10T10:23:49;38.37;;;19.53;;
6785;SDS011;3430;51.192;6.048;2022-12-10T10:26:14;32.63;;;19.33;;
6785;SDS011;3430;51.192;6.048;2022-12-10T10:28:40;32.37;;;20.30;;
6785;SDS011;3430;51.192;6.048;2022-12-10T10:31:24;34.87;;;19.27;;
6785;SDS011;3430;51.192;6.048;2022-12-10T10:33:51;27.03;;;17.20;;
6785;SDS011;3430;51.192;6.048;2022-12-10T10:36:24;31.53;;;18.87;;
6785;SDS011;3430;51.192;6.048;2022-12-10T10:38:50;32.80;;;19.40;;
6785;SDS011;3430;51.192;6.048;2022-12-10T10:41:16;33.10;;;19.10;;
6785;SDS011;3430;51.192;6.048;2022-12-10T10:43:42;30.77;;;19.07;;
6785;SDS011;3430;51.192;6.048;2022-12-10T10:48:35;36.13;;;19.37;;
6785;SDS011;3430;51.192;6.048;2022-12-10T10:56:16;33.13;;;18.73;;
6785;SDS011;3430;51.192;6.048;2022-12-10T10:58:47;32.37;;;19.63;;
6785;SDS011;3430;51.192;6.048;2022-12-10T11:01:13;33.00;;;19.03;;
6785;SDS011;3430;51.192;6.048;2022-12-10T11:03:44;29.90;;;17.10;;
6785;SDS011;3430;51.192;6.048;2022-12-10T11:06:11;36.30;;;19.77;;
6785;SDS011;3430;51.192;6.048;2022-12-10T11:08:37;32.70;;;18.60;;
6785;SDS011;3430;51.192;6.048;2022-12-10T11:11:05;30.40;;;18.80;;
6785;SDS011;3430;51.192;6.048;2022-12-10T11:13:31;32.00;;;19.00;;
6785;SDS011;3430;51.192;6.048;2022-12-10T11:15:59;33.10;;;19.17;;
6785;SDS011;3430;51.192;6.048;2022-12-10T11:23:28;30.50;;;18.30;;
6785;SDS011;3430;51.192;6.048;2022-12-10T11:28:36;29.30;;;18.33;;
6785;SDS011;3430;51.192;6.048;2022-12-10T11:36:22;28.63;;;17.83;;
6785;SDS011;3430;51.192;6.048;2022-12-10T11:38:50;32.07;;;18.70;;
6785;SDS011;3430;51.192;6.048;2022-12-10T11:43:47;28.27;;;18.50;;
6785;SDS011;3430;51.192;6.048;2022-12-10T11:46:30;27.17;;;17.07;;
6785;SDS011;3430;51.192;6.048;2022-12-10T11:56:43;29.57;;;17.57;;
6785;SDS011;3430;51.192;6.048;2022-12-10T12:14:12;32.03;;;18.90;;
6785;SDS011;3430;51.192;6.048;2022-12-10T12:19:17;30.37;;;18.50;;
6785;SDS011;3430;51.192;6.048;2022-12-10T12:21:44;31.10;;;17.90;;
6785;SDS011;3430;51.192;6.048;2022-12-10T12:24:33;28.60;;;17.73;;
6785;SDS011;3430;51.192;6.048;2022-12-10T12:27:00;29.67;;;17.77;;
6785;SDS011;3430;51.192;6.048;2022-12-10T12:29:27;32.87;;;18.30;;
6785;SDS011;3430;51.192;6.048;2022-12-10T12:31:56;25.70;;;16.30;;
6785;SDS011;3430;51.192;6.048;2022-12-10T12:34:27;28.97;;;18.23;;
6785;SDS011;3430;51.192;6.048;2022-12-10T12:36:54;29.67;;;18.83;;
6785;SDS011;3430;51.192;6.048;2022-12-10T12:44:19;38.07;;;18.83;;
6785;SDS011;3430;51.192;6.048;2022-12-10T12:46:48;31.77;;;18.60;;
6785;SDS011;3430;51.192;6.048;2022-12-10T12:54:53;32.77;;;18.50;;
6785;SDS011;3430;51.192;6.048;2022-12-10T12:57:36;30.33;;;17.40;;
6785;SDS011;3430;51.192;6.048;2022-12-10T13:00:05;31.50;;;16.90;;
6785;SDS011;3430;51.192;6.048;2022-12-10T13:04:56;31.47;;;17.50;;
6785;SDS011;3430;51.192;6.048;2022-12-10T13:09:48;30.47;;;18.10;;
6785;SDS011;3430;51.192;6.048;2022-12-10T13:19:52;28.40;;;16.97;;
6785;SDS011;3430;51.192;6.048;2022-12-10T13:37:32;29.20;;;16.60;;
6785;SDS011;3430;51.192;6.048;2022-12-10T13:40:12;28.43;;;16.30;;
6785;SDS011;3430;51.192;6.048;2022-12-10T13:42:38;26.83;;;17.07;;
6785;SDS011;3430;51.192;6.048;2022-12-10T13:47:52;29.37;;;18.20;;
6785;SDS011;3430;51.192;6.048;2022-12-10T13:50:19;30.97;;;17.23;;
6785;SDS011;3430;51.192;6.048;2022-12-10T13:58:00;28.83;;;16.57;;
6785;SDS011;3430;51.192;6.048;2022-12-10T14:03:09;26.33;;;15.43;;
6785;SDS011;3430;51.192;6.048;2022-12-10T14:08:05;26.70;;;16.30;;
6785;SDS011;3430;51.192;6.048;2022-12-10T14:10:34;25.73;;;15.70;;
6785;SDS011;3430;51.192;6.048;2022-12-10T14:13:01;28.50;;;15.53;;
6785;SDS011;3430;51.192;6.048;2022-12-10T14:15:27;25.97;;;14.93;;
6785;SDS011;3430;51.192;6.048;2022-12-10T14:18:03;25.50;;;15.30;;
6785;SDS011;3430;51.192;6.048;2022-12-10T14:20:29;25.10;;;15.37;;
6785;SDS011;3430;51.192;6.048;2022-12-10T14:22:55;25.50;;;15.37;;
6785;SDS011;3430;51.192;6.048;2022-12-10T14:25:44;28.57;;;16.13;;
6785;SDS011;3430;51.192;6.048;2022-12-10T14:28:12;24.87;;;14.67;;
6785;SDS011;3430;51.192;6.048;2022-12-10T14:30:37;25.00;;;14.33;;
6785;SDS011;3430;51.192;6.048;2022-12-10T14:33:07;26.07;;;15.60;;
6785;SDS011;3430;51.192;6.048;2022-12-10T14:35:33;27.40;;;15.83;;
6785;SDS011;3430;51.192;6.048;2022-12-10T14:37:59;28.37;;;15.43;;
6785;SDS011;3430;51.192;6.048;2022-12-10T14:40:40;27.20;;;15.77;;
6785;SDS011;3430;51.192;6.048;2022-12-10T14:43:07;26.33;;;15.50;;
6785;SDS011;3430;51.192;6.048;2022-12-10T14:45:51;26.77;;;15.97;;
6785;SDS011;3430;51.192;6.048;2022-12-10T14:48:17;29.67;;;16.17;;
6785;SDS011;3430;51.192;6.048;2022-12-10T14:50:43;26.80;;;15.30;;
6785;SDS011;3430;51.192;6.048;2022-12-10T14:53:16;27.03;;;16.13;;
6785;SDS011;3430;51.192;6.048;2022-12-10T14:55:42;26.53;;;14.77;;
6785;SDS011;3430;51.192;6.048;2022-12-10T14:58:14;27.27;;;16.73;;
6785;SDS011;3430;51.192;6.048;2022-12-10T15:00:41;25.43;;;15.27;;
6785;SDS011;3430;51.192;6.048;2022-12-10T15:03:08;29.50;;;15.60;;
6785;SDS011;3430;51.192;6.048;2022-12-10T15:05:33;26.17;;;16.20;;
6785;SDS011;3430;51.192;6.048;2022-12-10T15:08:00;30.27;;;16.00;;
6785;SDS011;3430;51.192;6.048;2022-12-10T15:10:27;26.07;;;15.70;;
6785;SDS011;3430;51.192;6.048;2022-12-10T15:12:54;25.77;;;15.27;;
6785;SDS011;3430;51.192;6.048;2022-12-10T15:15:30;26.27;;;15.70;;
6785;SDS011;3430;51.192;6.048;2022-12-10T15:18:00;27.97;;;16.17;;
6785;SDS011;3430;51.192;6.048;2022-12-10T15:25:58;28.33;;;15.20;;
6785;SDS011;3430;51.192;6.048;2022-12-10T15:28:25;28.70;;;15.70;;
6785;SDS011;3430;51.192;6.048;2022-12-10T15:30:51;25.10;;;14.77;;
6785;SDS011;3430;51.192;6.048;2022-12-10T15:33:30;21.50;;;14.13;;
6785;SDS011;3430;51.192;6.048;2022-12-10T15:35:56;21.33;;;13.53;;
6785;SDS011;3430;51.192;6.048;2022-12-10T15:38:23;26.50;;;14.00;;
6785;SDS011;3430;51.192;6.048;2022-12-10T15:40:49;26.03;;;14.67;;
6785;SDS011;3430;51.192;6.048;2022-12-10T15:43:24;24.40;;;14.50;;
6785;SDS011;3430;51.192;6.048;2022-12-10T15:45:50;21.93;;;13.60;;
6785;SDS011;3430;51.192;6.048;2022-12-10T15:48:15;23.67;;;13.83;;
6785;SDS011;3430;51.192;6.048;2022-12-10T15:50:42;23.53;;;13.83;;
6785;SDS011;3430;51.192;6.048;2022-12-10T15:53:11;27.00;;;14.77;;
6785;SDS011;3430;51.192;6.048;2022-12-10T15:55:37;24.20;;;13.77;;
6785;SDS011;3430;51.192;6.048;2022-12-10T15:58:04;26.07;;;14.87;;
6785;SDS011;3430;51.192;6.048;2022-12-10T16:00:30;25.53;;;14.27;;
6785;SDS011;3430;51.192;6.048;2022-12-10T16:02:56;23.67;;;13.37;;
6785;SDS011;3430;51.192;6.048;2022-12-10T16:05:32;24.50;;;13.40;;
6785;SDS011;3430;51.192;6.048;2022-12-10T16:07:58;22.57;;;13.63;;
6785;SDS011;3430;51.192;6.048;2022-12-10T16:10:25;24.60;;;13.93;;
6785;SDS011;3430;51.192;6.048;2022-12-10T16:12:58;26.10;;;14.63;;
6785;SDS011;3430;51.192;6.048;2022-12-10T16:15:24;26.43;;;14.70;;
6785;SDS011;3430;51.192;6.048;2022-12-10T16:17:51;24.07;;;14.13;;
6785;SDS011;3430;51.192;6.048;2022-12-10T16:22:45;24.40;;;13.23;;
6785;SDS011;3430;51.192;6.048;2022-12-10T16:25:10;28.00;;;15.13;;
6785;SDS011;3430;51.192;6.048;2022-12-10T16:27:36;24.43;;;13.93;;
6785;SDS011;3430;51.192;6.048;2022-12-10T16:32:39;20.90;;;13.33;;
6785;SDS011;3430;51.192;6.048;2022-12-10T16:35:04;27.17;;;13.03;;
6785;SDS011;3430;51.192;6.048;2022-12-10T16:37:29;27.90;;;14.40;;
6785;SDS011;3430;51.192;6.048;2022-12-10T16:39:55;26.60;;;14.30;;
6785;SDS011;3430;51.192;6.048;2022-12-10T16:42:20;23.07;;;13.70;;
6785;SDS011;3430;51.192;6.048;2022-12-10T16:44:45;27.73;;;13.20;;
6785;SDS011;3430;51.192;6.048;2022-12-10T16:47:11;27.70;;;14.13;;
6785;SDS011;3430;51.192;6.048;2022-12-10T16:49:37;24.07;;;13.17;;
6785;SDS011;3430;51.192;6.048;2022-12-10T16:52:02;27.73;;;13.97;;
6785;SDS011;3430;51.192;6.048;2022-12-10T16:54:27;26.63;;;13.87;;
6785;SDS011;3430;51.192;6.048;2022-12-10T16:56:53;24.17;;;13.70;;
6785;SDS011;3430;51.192;6.048;2022-12-10T16:59:18;22.40;;;12.63;;
6785;SDS011;3430;51.192;6.048;2022-12-10T17:01:43;26.10;;;13.23;;
6785;SDS011;3430;51.192;6.048;2022-12-10T17:04:09;27.07;;;14.00;;
6785;SDS011;3430;51.192;6.048;2022-12-10T17:06:34;27.73;;;13.73;;
6785;SDS011;3430;51.192;6.048;2022-12-10T17:09:00;25.37;;;13.57;;